Latest Coastal Weather Observations for Truscott

IDD60701

Issued at 7:15 pm CST Friday 28 November 2014 (issued every 10 minutes, with the page automatically refreshed every 10 minutes)

About coastal observations | Map of coastal stations | Coastal observations for NT | Marine services | Other Formats
Station Details ID: 001020 Name: TRUSCOTT Lat: -14.09 Lon: 126.39 Height: 51.0 m
Data from the previous 72 hours. | See also: Recent months at Truscott
Date/Time
CST
Temp

°C
Wind Pressure Rain
since 9am
mm
Weather Cloud Vis
km
Sea
Height
m
Swell
Dir
 
Speed
knots
Gust
knots
hPa Trend Height
m
Period
s
Dir
28/07:00pm 30.0 N 5 8 1006.8 - 0.0 - - 10 - - - -
28/06:30pm 30.5 N 7 10 1006.5 - 0.0 - - 10 - - - -
28/06:00pm 30.7 N 8 11 1006.2 - 0.0 - - 10 - - - -
28/05:30pm 31.9 N 8 11 1006.3 - 0.0 - - 10 - - - -
28/05:00pm 32.6 NNE 8 15 1006.1 - 0.0 - Partly cloudy 10 - - - -
28/04:30pm 32.3 N 10 15 1005.7 - 0.0 - Mostly clear 10 - - - -
28/04:00pm 32.9 N 12 17 1006.2 - 0.0 - - 10 - - - -
28/03:30pm 32.6 N 11 19 1006.6 - 0.0 - - 10 - - - -
28/03:00pm 33.0 N 10 15 1006.9 - 0.0 - - 10 - - - -
28/02:30pm 33.1 N 9 17 1007.2 - 0.0 - Partly cloudy 10 - - - -
28/02:00pm 35.3 NE 7 12 1007.5 - 0.0 - Partly cloudy 10 - - - -
28/01:30pm 34.9 ENE 8 13 1007.3 - 0.0 - - 10 - - - -
28/01:00pm 34.2 E 10 14 1008.2 - 0.0 - - 9 - - - -
28/12:30pm 34.3 ENE 9 15 1008.6 - 0.0 - - 10 - - - -
28/12:00pm 34.3 ENE 9 14 1008.8 - 0.0 - - 10 - - - -
28/11:30am 34.3 ENE 6 11 1009.0 - 0.0 - Partly cloudy 10 - - - -
28/11:00am 33.3 E 3 7 1009.2 - 0.0 - - 10 - - - -
28/10:30am 32.9 S 7 11 1009.0 - 0.4 - - 10 - - - -
28/10:00am 32.1 S 5 9 1009.7 - 0.4 - - 10 - - - -
28/09:30am 31.2 SE 6 8 1009.8 - 0.4 - - 10 - - - -
28/09:00am 30.9 SW 5 8 1009.6 - 0.4 - - 10 - - - -
28/08:30am 30.2 S 5 7 1009.6 - 0.4 - - 10 - - - -
28/08:00am 29.0 S 5 6 1009.6 - 0.4 - - 9 - - - -
28/07:30am 28.0 S 5 6 1008.6 - 0.4 - Mostly clear 10 - - - -
28/07:00am 26.9 SW 4 5 1009.1 - 0.4 - - 10 - - - -
28/06:30am 25.5 CALM 0 0 1008.8 - 0.4 - - 9 - - - -
28/06:00am 25.5 CALM 0 0 1008.5 - 0.4 - - 10 - - - -
28/05:30am 25.5 CALM 0 0 1008.4 - 0.4 - - 10 - - - -
28/05:00am 25.0 CALM 0 0 1008.1 - 0.4 - - 10 - - - -
28/04:30am 25.1 CALM 0 0 1007.4 - 0.4 - - 10 - - - -
28/04:00am 25.3 CALM 0 0 1007.9 - 0.4 - - 10 - - - -
28/03:30am 25.4 CALM 0 0 1007.8 - 0.4 - - 10 - - - -
28/03:00am 25.6 ESE 3 4 1008.2 - 0.4 - Partly cloudy 6 - - - -
28/02:30am 25.5 CALM 0 0 1008.3 - 0.4 - - 10 - - - -
28/02:00am 25.8 CALM 0 0 1008.8 - 0.4 - Partly cloudy 10 - - - -
28/01:34am 26.0 CALM 0 0 1009.1 - 0.4 - - 10 - - - -
28/01:30am 26.1 CALM 0 0 1008.5 - 0.4 - - 10 - - - -
28/01:18am 26.0 CALM 0 0 1009.1 - 0.4 - - 5 - - - -
28/01:00am 26.1 S 3 4 1009.3 - 0.4 - - 9 - - - -
28/12:30am 26.4 S 3 4 1009.7 - 0.4 - Partly cloudy 10 - - - -
28/12:00am 26.4 SSE 3 4 1010.0 - 0.4 - - 10 - - - -
 
Date/Time
CST
Temp

°C
Wind Pressure Rain
since 9am
mm
Weather Cloud Vis
km
Sea
Height
m
Swell
Dir
 
Speed
knots
Gust
knots
hPa Trend Height
m
Period
s
Dir
27/11:30pm 26.7 CALM 0 0 1010.5 - 0.4 - Partly cloudy - - - - -
27/11:00pm 26.6 S 3 4 1010.6 - 0.4 - Partly cloudy 10 - - - -
27/10:30pm 26.4 CALM 0 3 1009.8 - 0.4 - - 10 - - - -
27/10:00pm 26.8 CALM 0 0 1010.0 - 0.4 - - 10 - - - -
27/09:30pm 27.3 SW 1 3 1009.5 - 0.4 - - 10 - - - -
27/09:00pm 27.7 SW 3 4 1009.0 - 0.4 - - 10 - - - -
27/08:30pm 28.1 S 6 10 1008.8 - 0.4 - - 10 - - - -
27/08:00pm 28.4 SW 4 6 1008.4 - 0.4 - - 10 - - - -
27/07:30pm 28.6 SW 4 5 1007.1 - 0.4 - - 10 - - - -
27/07:00pm 29.3 SSW 6 7 1007.2 - 0.4 - - 10 - - - -
27/06:30pm 31.1 SW 6 8 1007.1 - 0.4 - - 10 - - - -
27/06:00pm 32.0 N 1 4 1006.9 - 0.4 - - 10 - - - -
27/05:30pm 31.4 NNW 5 8 1006.7 - 0.4 - - 7 - - - -
27/05:00pm 29.8 N 5 7 1006.7 - 0.2 - - 10 - - - -
27/04:30pm 28.6 SE 2 5 1006.7 - 0.2 - - 10 - - - -
27/04:00pm 28.3 ESE 5 7 1007.7 - 0.2 - Partly cloudy 10 - - - -
27/03:30pm 28.6 ESE 6 9 1008.0 - 0.2 - Partly cloudy 10 - - - -
27/03:00pm 28.3 E 10 16 1008.7 - 0.2 - Partly cloudy 10 - - - -
27/02:30pm 28.6 E 10 16 1008.7 - 0.2 - Partly cloudy 10 - - - -
27/02:00pm 27.1 ENE 10 18 1008.6 - 0.0 - Partly cloudy 10 - - - -
27/01:30pm 30.6 N 15 27 1008.0 - 0.0 - Partly cloudy 10 - - - -
27/01:29pm 30.7 N 15 27 1008.5 - 0.0 - Partly cloudy 10 - - - -
27/01:00pm 32.3 N 12 18 1008.6 - 0.0 - Partly cloudy 9 - - - -
27/12:30pm 33.7 N 10 17 1008.6 - 0.0 - Partly cloudy 10 - - - -
27/12:00pm 32.5 NNE 7 11 1009.0 - 0.0 - Partly cloudy 10 - - - -
27/11:30am 33.0 NE 7 12 1009.0 - 0.0 - Partly cloudy 10 - - - -
27/11:00am 32.3 N 5 13 1009.3 - 0.0 - Partly cloudy 10 - - - -
27/10:30am 32.2 ENE 6 11 1009.0 - 0.0 - Mostly clear 10 - - - -
27/10:00am 31.5 NNE 4 9 1009.9 - 0.0 - Partly cloudy 10 - - - -
27/09:30am 32.4 NE 4 7 1009.7 - 0.0 - Partly cloudy 10 - - - -
27/09:00am 31.3 NE 4 7 1009.4 - 0.0 - - 10 - - - -
27/08:30am 29.9 NNE 4 7 1009.2 - 0.0 - - 10 - - - -
27/08:00am 29.8 E 3 5 1009.2 - 0.0 - - 10 - - - -
27/07:30am 28.5 E 3 4 1008.2 - 0.0 - - 10 - - - -
27/07:00am 26.7 CALM 0 4 1008.3 - 0.0 - - 10 - - - -
27/06:30am 26.1 E 3 4 1007.8 - 0.0 - - 10 - - - -
27/06:00am 26.1 E 3 4 1007.6 - 0.0 - - 10 - - - -
27/05:30am 25.9 E 1 4 1007.3 - 0.0 - - 10 - - - -
27/05:00am 25.9 CALM 0 0 1007.1 - 0.0 - - 10 - - - -
27/04:30am 26.1 E 1 4 1006.4 - 0.0 - - 10 - - - -
27/04:00am 26.2 CALM 0 0 1007.1 - 0.0 - - 10 - - - -
27/03:30am 26.3 NNE 3 4 1007.0 - 0.0 - - 10 - - - -
27/03:00am 26.2 E 2 5 1007.1 - 0.0 - - 10 - - - -
27/02:30am 26.9 CALM 0 0 1007.2 - 0.0 - - 10 - - - -
27/02:00am 26.9 CALM 0 3 1007.2 - 0.0 - - 10 - - - -
27/01:30am 27.1 NE 4 6 1006.7 - 0.0 - - 10 - - - -
27/01:00am 26.7 CALM 0 0 1007.6 - 0.0 - - 10 - - - -
27/12:30am 27.0 NNE 1 3 1007.9 - 0.0 - - 10 - - - -
27/12:00am 27.2 CALM 0 0 1007.9 - 0.0 - - 10 - - - -
 
Date/Time
CST
Temp

°C
Wind Pressure Rain
since 9am
mm
Weather Cloud Vis
km
Sea
Height
m
Swell
Dir
 
Speed
knots
Gust
knots
hPa Trend Height
m
Period
s
Dir
26/11:30pm 27.5 NE 3 4 1008.1 - 0.0 - - 10 - - - -
26/11:00pm 28.0 NE 3 4 1008.3 - 0.0 - - 10 - - - -
26/10:30pm 28.2 NE 4 5 1007.8 - 0.0 - - 10 - - - -
26/10:00pm 28.2 NE 3 5 1008.1 - 0.0 - - 10 - - - -
26/09:30pm 28.3 NNE 5 7 1008.1 - 0.0 - - 10 - - - -
26/09:00pm 28.3 NNE 4 6 1007.6 - 0.0 - - 10 - - - -
26/08:30pm 28.6 NNE 5 6 1007.1 - 0.0 - - 10 - - - -
26/08:00pm 28.9 NNE 6 7 1006.8 - 0.0 - - 10 - - - -
26/07:30pm 29.4 NNE 6 9 1005.9 - 0.0 - Partly cloudy 10 - - - -
26/07:00pm 29.8 N 7 11 1006.0 - 0.0 - Partly cloudy 10 - - - -
26/06:30pm 30.2 NNE 7 11 1005.8 - 0.0 - - 10 - - - -
26/06:00pm 30.4 NNE 8 11 1005.5 - 0.0 - - 10 - - - -
26/05:30pm 30.5 NNE 8 11 1005.6 - 0.0 - - 10 - - - -
26/05:00pm 31.4 N 9 14 1005.5 - 0.0 - Partly cloudy 10 - - - -
26/04:30pm 32.4 N 9 13 1004.6 - 0.0 - Mostly clear 10 - - - -
26/04:00pm 31.7 NE 7 10 1005.2 - 0.0 - - 10 - - - -
26/03:30pm 30.8 NNE 8 13 1005.5 - 0.0 - - 10 - - - -
26/03:00pm 30.8 NNE 8 13 1005.8 - 0.0 - - 10 - - - -
26/02:30pm 30.5 N 8 12 1006.4 - 0.0 - - 10 - - - -
26/02:00pm 31.0 NNE 8 13 1006.6 - 0.0 - - 10 - - - -
26/01:30pm 31.3 NNE 6 11 1006.2 - 0.0 - - 10 - - - -
26/01:00pm 30.8 NNE 6 9 1006.9 - 0.0 - - 10 - - - -
26/12:30pm 31.1 ENE 6 8 1007.3 - 0.0 - - 10 - - - -
26/12:00pm 31.1 NE 5 8 1007.7 - 0.0 - - 10 - - - -
26/11:30am 31.0 ENE 7 10 1007.9 - 0.0 - - 10 - - - -
26/11:00am 31.2 E 7 13 1008.3 - 0.0 - - 10 - - - -
26/10:30am 30.6 E 9 13 1008.2 - 0.0 - - 10 - - - -
26/10:00am 30.9 SE 10 16 1008.8 - 0.0 - - 10 - - - -
26/09:30am 30.1 SE 11 16 1008.8 - 0.0 - Partly cloudy 10 - - - -
26/09:00am 29.5 SE 10 17 1008.6 - 0.0 - - 10 - - - -
26/08:30am 29.3 ESE 10 14 1008.5 - 0.0 - Partly cloudy 10 - - - -
26/08:00am 28.1 ESE 7 12 1008.5 - 0.0 - Partly cloudy 10 - - - -
26/07:30am 27.6 SE 4 6 1007.5 - 0.0 - Mostly clear 10 - - - -
26/07:00am 27.0 SE 4 7 1008.0 - 0.0 - - 10 - - - -
26/06:30am 26.9 SE 5 7 1007.7 - 0.0 - Partly cloudy 10 - - - -
26/06:00am 27.0 ESE 6 9 1007.8 - 0.0 - Partly cloudy 10 - - - -
26/05:30am 27.0 ESE 4 6 1007.4 - 0.0 - - 10 - - - -
26/05:00am 26.8 ESE 6 9 1007.2 - 0.0 - Partly cloudy 10 - - - -
26/04:30am 26.6 E 5 7 1006.0 - 0.0 - Mostly clear 10 - - - -
26/04:00am 26.4 E 1 4 1005.9 - 0.0 - - 10 - - - -
26/03:30am 26.6 CALM 0 0 1005.6 - 0.0 - Partly cloudy 10 - - - -
26/03:00am 26.6 CALM 0 0 1005.4 - 0.0 - - 10 - - - -
26/02:30am 26.9 ENE 2 5 1005.6 - 0.0 - - 10 - - - -
26/02:00am 27.5 SW 5 6 1005.7 - 0.0 - - 10 - - - -
26/01:30am 27.3 SSW 5 6 1005.6 - 0.0 - - 10 - - - -
26/01:00am 27.2 S 3 4 1006.6 - 0.0 - - 10 - - - -
26/12:30am 26.8 S 4 6 1007.0 - 0.0 - - 10 - - - -
26/12:00am 27.1 SSW 2 4 1007.1 - 0.0 - - 10 - - - -
 
Date/Time
CST
Temp

°C
Wind Pressure Rain
since 9am
mm
Weather Cloud Vis
km
Sea
Height
m
Swell
Dir
 
Speed
knots
Gust
knots
hPa Trend Height
m
Period
s
Dir
25/11:30pm 27.1 S 5 7 1007.5 - 0.0 - - 10 - - - -
25/11:00pm 27.8 S 3 5 1007.4 - 0.0 - - 10 - - - -
25/10:30pm 27.7 S 3 5 1006.5 - 0.0 - - 10 - - - -
25/10:00pm 28.3 W 3 4 1006.7 - 0.0 - - 10 - - - -
25/09:30pm 28.0 N 4 5 1006.5 - 0.0 - - 10 - - - -
25/09:00pm 28.1 N 3 5 1006.6 - 0.0 - - 10 - - - -

Other Formats:

Comma delimited format used in spreadsheet applications
http://www.bom.gov.au/fwo/IDD60701/IDD60701.95101.axf

JavaScript Object Notation format (JSON) in row-major order
http://www.bom.gov.au/fwo/IDD60701/IDD60701.95101.json